Carnmore, Ireland

10:03 PM GMT on December 28, 2014 (GMT +0000)
Oranmore | Change Station
CLOSE
Current Station
Personal Weather Station
Location: Oranmore, Co.Galway
Elevation: 0 ft
Nearby Weather Stations

Elev 0 ft 53.27 °N, 8.93 °W | Updated 1 minute ago

Mist
Mist
30.0 °F
Feels Like 30 °F
N
0.0
Wind Variable Wind from NE
Gusts 0.0 mph

Today
High -- | Low -- °F
--% Chance of Precip.
Yesterday
High -- | Low -- °F
Precip. -- in
8:50 AM 4:23 PM
First Quarter, 52% visible
Pressure 30.69 in
Visibility 3.1 miles
Clouds
Windchill 30 °F
Dew Point 29 °F
Humidity 95%
Rainfall 0.00 in
Snow Depth Not available.
UV Not available.
Pollen Not available.
Air Quality Not available.
Flu Activity Not available.
METAR EINN 282200Z 00000KT 5000 BR NSC M02/M02 Q1039 BECMG 3000

More Conditions Fewer Conditions

Pressure 30.69 in
Visibility 3.1 miles
Clouds
Windchill 30 °F
Dew Point 29 °F
Humidity 95%
Rainfall 0.00 in
Snow Depth Not available.
UV Not available.
Pollen Not available.
Air Quality Not available.
Flu Activity Not available.
METAR EINN 282200Z 00000KT 5000 BR NSC M02/M02 Q1039 BECMG 3000

More Conditions Fewer Conditions

10-Day Weather Forecast

Almanac

Astronomy

Dec. 28, 2014 Rise Set
Actual Time
Civil Twilight
Nautical Twilight
Astronomical Twilight
Moon
Length of Visible Light
Length of Day
Tomorrow will be .
, % of the Moon is Illuminated

Today's Extremes

Country Highs Country Lows

Community

WunderPhotos

Upload Photos

1,781,444 photos uploaded!

WunderBlogs® & News

Nearby

Air Quality

  Air Quality AQ Index Pollutant
Not available.

Snow Depth

Station Depth Elevation

Earthquake Activity

City Distance Mag. Time & Date
Minimum magnitude displayed is 2.5.

Coastal Water Temperatures

Place Temperature

Nearby Weather Stations